Time;durP1;ratioP1;P1;durP2;ratioP2;P2;SDS_P1;SDS_P2;PMS_P1;PMS_P2;Temp;Humidity;BMP_temperature;BMP_pressure;BME280_temperature;BME280_humidity;BME280_pressure;Samples;Min_cycle;Max_cycle;Signal;HPM_P1;HPM_P2
2023/11/16 00:00:57;;;;;;;7.80;5.28;;;9.80;99.90;;;;;;6302426;22;20601;-68
2023/11/16 00:03:43;;;;;;;8.20;5.45;;;9.70;99.90;;;;;;6300384;22;20016;-68
2023/11/16 00:06:29;;;;;;;7.45;5.18;;;9.70;99.90;;;;;;6281468;22;20086;-68
2023/11/16 00:09:15;;;;;;;9.85;5.93;;;9.70;99.90;;;;;;6301800;22;20022;-68
2023/11/16 00:12:02;;;;;;;9.65;5.43;;;9.70;99.90;;;;;;6301982;22;20416;-68
2023/11/16 00:14:48;;;;;;;15.48;6.32;;;9.70;99.90;;;;;;6299216;22;20007;-67
2023/11/16 00:17:36;;;;;;;9.38;6.55;;;9.70;99.90;;;;;;6301229;22;20065;-68
2023/11/16 00:20:23;;;;;;;7.63;5.70;;;9.70;99.90;;;;;;6300648;22;20076;-68
2023/11/16 00:23:09;;;;;;;6.53;5.47;;;9.80;99.90;;;;;;6303035;22;20007;-69
2023/11/16 00:25:55;;;;;;;10.77;6.70;;;9.80;99.90;;;;;;6302023;22;20391;-67
2023/11/16 00:28:42;;;;;;;8.02;5.50;;;9.80;99.90;;;;;;6302450;22;20011;-68
2023/11/16 00:31:30;;;;;;;8.55;6.40;;;9.80;99.90;;;;;;6302012;22;20015;-68
2023/11/16 00:34:16;;;;;;;7.93;5.57;;;9.90;99.90;;;;;;6302232;22;20003;-67
2023/11/16 00:37:05;;;;;;;7.43;5.18;;;9.90;99.90;;;;;;6300292;22;20007;-67
2023/11/16 00:39:56;;;;;;;9.35;5.60;;;9.90;99.90;;;;;;6302082;22;20372;-67
2023/11/16 00:42:42;;;;;;;8.48;5.22;;;9.90;99.90;;;;;;6301737;22;20121;-68
2023/11/16 00:45:28;;;;;;;7.15;4.75;;;9.90;99.90;;;;;;6301012;22;20003;-67
2023/11/16 00:48:13;;;;;;;6.43;4.45;;;9.90;99.90;;;;;;6299815;22;20080;-67
2023/11/16 00:51:00;;;;;;;7.82;4.03;;;9.90;99.90;;;;;;6300412;22;20003;-67
2023/11/16 00:53:46;;;;;;;5.70;3.70;;;9.90;99.90;;;;;;6301904;22;20019;-67
2023/11/16 00:56:32;;;;;;;5.82;3.90;;;9.90;99.90;;;;;;6301444;22;20007;-68
2023/11/16 00:59:20;;;;;;;5.65;4.15;;;9.90;99.90;;;;;;6279578;22;20015;-68
2023/11/16 01:02:08;;;;;;;6.55;3.83;;;9.90;99.90;;;;;;6280045;22;20390;-68
2023/11/16 01:04:54;;;;;;;6.65;4.47;;;9.90;99.90;;;;;;6300686;22;20412;-68
2023/11/16 01:07:40;;;;;;;7.22;3.85;;;9.90;99.90;;;;;;6300134;22;20650;-68
2023/11/16 01:10:29;;;;;;;7.97;4.35;;;9.90;99.90;;;;;;6300666;22;20007;-69
2023/11/16 01:13:23;;;;;;;5.95;4.07;;;10.00;99.90;;;;;;6301793;22;20015;-68
2023/11/16 01:16:12;;;;;;;6.60;3.97;;;9.90;99.90;;;;;;6301719;22;20003;-68
2023/11/16 01:19:00;;;;;;;7.43;4.30;;;10.00;99.90;;;;;;6300051;22;20019;-68
2023/11/16 01:21:54;;;;;;;7.78;4.50;;;10.00;99.90;;;;;;6300802;22;20137;-67
2023/11/16 01:24:41;;;;;;;8.07;4.10;;;10.00;99.90;;;;;;6301393;22;20042;-67
2023/11/16 01:27:29;;;;;;;5.07;3.95;;;10.00;99.90;;;;;;6301438;22;20007;-68
2023/11/16 01:30:14;;;;;;;6.07;4.07;;;9.90;99.90;;;;;;6300901;22;20477;-67
2023/11/16 01:33:03;;;;;;;10.48;4.75;;;10.00;99.90;;;;;;6301611;22;20022;-70
2023/11/16 01:35:51;;;;;;;4.78;3.42;;;10.00;99.90;;;;;;6301817;22;20017;-72
2023/11/16 01:38:37;;;;;;;5.63;3.90;;;9.90;99.90;;;;;;6301276;22;20019;-70
2023/11/16 01:41:23;;;;;;;8.48;4.25;;;10.00;99.90;;;;;;6301016;22;20008;-70
2023/11/16 01:44:09;;;;;;;6.30;4.07;;;10.00;99.90;;;;;;6301795;22;20011;-69
2023/11/16 01:46:56;;;;;;;5.75;3.45;;;10.00;99.90;;;;;;6299349;22;20258;-69
2023/11/16 01:49:43;;;;;;;6.85;4.03;;;10.00;99.90;;;;;;6301212;22;20011;-69
2023/11/16 01:52:29;;;;;;;9.18;4.30;;;10.00;99.90;;;;;;6301424;22;20484;-69
2023/11/16 01:55:16;;;;;;;6.40;4.00;;;10.00;99.90;;;;;;6301070;22;20011;-69
2023/11/16 01:58:03;;;;;;;5.60;3.63;;;10.00;99.90;;;;;;6299843;22;20019;-69
2023/11/16 02:00:49;;;;;;;6.72;3.95;;;9.90;99.90;;;;;;6299971;22;20387;-68
2023/11/16 02:03:35;;;;;;;5.88;3.88;;;10.00;99.90;;;;;;6301739;22;20073;-68
2023/11/16 02:06:22;;;;;;;5.90;3.97;;;10.00;99.90;;;;;;6301942;22;20011;-68
2023/11/16 02:09:09;;;;;;;7.40;3.90;;;10.00;99.90;;;;;;6303672;22;20012;-68
2023/11/16 02:11:55;;;;;;;7.35;3.60;;;10.00;99.90;;;;;;6302274;22;20422;-68
2023/11/16 02:14:41;;;;;;;9.95;4.93;;;10.00;99.90;;;;;;6302441;22;20318;-69
2023/11/16 02:17:29;;;;;;;5.63;3.75;;;10.00;99.90;;;;;;6301492;22;20094;-69
2023/11/16 02:20:20;;;;;;;5.82;3.50;;;10.00;99.90;;;;;;6302965;22;20019;-67
2023/11/16 02:23:06;;;;;;;9.48;4.05;;;10.00;99.90;;;;;;6302930;22;20368;-69
2023/11/16 02:25:56;;;;;;;6.00;3.70;;;10.10;99.90;;;;;;6302081;22;20452;-68
2023/11/16 02:28:42;;;;;;;6.75;4.55;;;10.00;99.90;;;;;;6301491;22;20017;-69
2023/11/16 02:31:28;;;;;;;5.88;3.80;;;10.00;99.90;;;;;;6302836;22;20566;-69
2023/11/16 02:34:14;;;;;;;6.22;3.42;;;10.00;99.90;;;;;;6302017;22;20464;-70
2023/11/16 02:37:01;;;;;;;7.38;3.97;;;10.00;99.90;;;;;;6302659;22;20026;-69
2023/11/16 02:39:47;;;;;;;4.25;3.50;;;10.00;99.90;;;;;;6302870;22;20030;-69
2023/11/16 02:42:32;;;;;;;6.75;3.67;;;10.00;99.90;;;;;;6281770;22;20071;-70
2023/11/16 02:45:22;;;;;;;5.35;3.90;;;10.00;99.90;;;;;;6300988;22;20015;-69
2023/11/16 02:48:08;;;;;;;9.32;4.00;;;10.00;99.90;;;;;;6302062;22;20026;-69
2023/11/16 02:50:54;;;;;;;5.82;3.97;;;10.00;99.90;;;;;;6302588;22;20014;-69
2023/11/16 02:53:43;;;;;;;6.35;3.70;;;10.00;99.90;;;;;;6303415;22;20405;-70
2023/11/16 02:56:29;;;;;;;12.15;4.32;;;10.00;99.90;;;;;;6303338;22;20012;-70
2023/11/16 02:59:15;;;;;;;6.97;3.40;;;10.10;99.90;;;;;;6299788;22;20029;-70
2023/11/16 03:02:04;;;;;;;9.10;4.10;;;10.10;99.90;;;;;;6280557;22;20011;-70
2023/11/16 03:04:50;;;;;;;6.68;3.20;;;10.10;99.90;;;;;;6302186;22;20018;-69
2023/11/16 03:07:38;;;;;;;5.70;3.28;;;10.10;99.90;;;;;;6302461;22;20007;-70
2023/11/16 03:10:24;;;;;;;5.78;3.40;;;10.10;99.90;;;;;;6300128;22;20090;-70
2023/11/16 03:13:12;;;;;;;7.10;3.40;;;10.10;99.90;;;;;;6302098;22;20402;-68
2023/11/16 03:15:58;;;;;;;5.70;3.25;;;10.10;99.90;;;;;;6301973;22;20252;-68
2023/11/16 03:18:44;;;;;;;5.00;2.90;;;10.10;99.90;;;;;;6301578;22;20046;-69
2023/11/16 03:21:30;;;;;;;4.95;2.83;;;10.10;99.90;;;;;;6302626;22;20269;-69
2023/11/16 03:24:16;;;;;;;4.35;2.90;;;10.20;99.90;;;;;;6302095;22;20054;-69
2023/11/16 03:27:03;;;;;;;5.05;2.80;;;10.20;99.90;;;;;;6302213;22;20049;-69
2023/11/16 03:29:49;;;;;;;8.85;3.28;;;10.10;99.90;;;;;;6301096;22;20011;-69
2023/11/16 03:32:35;;;;;;;4.55;3.03;;;10.20;99.90;;;;;;6301082;22;20015;-70
2023/11/16 03:35:21;;;;;;;5.85;2.65;;;10.20;99.90;;;;;;6302346;22;20032;-70
2023/11/16 03:38:07;;;;;;;5.45;3.30;;;10.20;99.90;;;;;;6303343;22;20471;-70
2023/11/16 03:40:53;;;;;;;6.65;2.85;;;10.20;99.90;;;;;;6302157;22;20382;-70
2023/11/16 03:43:40;;;;;;;6.68;2.95;;;10.20;99.90;;;;;;6301276;22;20015;-71
2023/11/16 03:46:26;;;;;;;3.67;2.50;;;10.20;99.90;;;;;;6302105;22;20547;-69
2023/11/16 03:49:14;;;;;;;4.95;2.78;;;10.20;99.90;;;;;;6302179;22;20010;-69
2023/11/16 03:52:00;;;;;;;5.10;2.35;;;10.20;99.90;;;;;;6302725;22;20039;-70
2023/11/16 03:54:46;;;;;;;8.85;2.90;;;10.20;99.90;;;;;;6302058;22;20065;-68
2023/11/16 03:57:32;;;;;;;6.53;3.17;;;10.20;99.90;;;;;;6301307;22;20115;-68
2023/11/16 04:00:20;;;;;;;8.40;2.90;;;10.20;99.90;;;;;;6302338;22;20007;-70
2023/11/16 04:03:07;;;;;;;7.65;2.50;;;10.20;99.90;;;;;;6302879;22;20022;-68
2023/11/16 04:05:52;;;;;;;7.20;2.60;;;10.20;99.90;;;;;;6301204;22;20082;-68
2023/11/16 04:08:38;;;;;;;5.97;3.30;;;10.20;99.90;;;;;;6300623;22;20011;-69
2023/11/16 04:11:24;;;;;;;7.43;2.90;;;10.20;99.90;;;;;;6302260;22;20039;-69
2023/11/16 04:14:11;;;;;;;4.97;2.22;;;10.20;99.90;;;;;;6302947;22;20018;-70
2023/11/16 04:16:58;;;;;;;5.53;2.78;;;10.20;99.90;;;;;;6300936;22;20045;-70
2023/11/16 04:19:44;;;;;;;6.25;2.88;;;10.20;99.90;;;;;;6300796;22;20314;-68
2023/11/16 04:22:30;;;;;;;5.85;2.75;;;10.20;99.90;;;;;;6302083;22;20499;-69
2023/11/16 04:25:22;;;;;;;6.15;3.00;;;10.20;99.90;;;;;;6302733;22;20089;-69
2023/11/16 04:28:10;;;;;;;5.43;2.80;;;10.10;99.90;;;;;;6300297;22;20003;-69
2023/11/16 04:30:56;;;;;;;9.27;3.58;;;10.20;99.90;;;;;;6300171;22;20015;-69
2023/11/16 04:33:42;;;;;;;6.32;2.97;;;10.20;99.90;;;;;;6301261;22;20038;-68
2023/11/16 04:36:28;;;;;;;7.40;3.47;;;10.10;99.90;;;;;;6300948;22;20094;-70
2023/11/16 04:39:14;;;;;;;5.25;2.72;;;10.20;99.90;;;;;;6300075;22;20030;-69
2023/11/16 04:42:01;;;;;;;5.82;3.08;;;10.20;99.90;;;;;;6302348;22;20007;-69
2023/11/16 04:44:47;;;;;;;5.05;2.80;;;10.10;99.90;;;;;;6301393;22;20557;-68
2023/11/16 04:47:37;;;;;;;6.10;3.55;;;10.10;99.90;;;;;;6299917;22;20015;-69
2023/11/16 04:50:31;;;;;;;6.53;3.30;;;10.10;99.90;;;;;;6299260;22;20012;-67
2023/11/16 04:53:17;;;;;;;5.18;2.97;;;10.10;99.90;;;;;;6301260;22;20080;-67
2023/11/16 04:56:05;;;;;;;4.72;2.80;;;10.10;99.90;;;;;;6300120;22;20391;-70
2023/11/16 04:58:51;;;;;;;5.78;3.00;;;10.10;99.90;;;;;;6301678;22;20058;-70
2023/11/16 05:01:37;;;;;;;5.72;2.45;;;10.10;99.90;;;;;;6301410;22;20007;-71
2023/11/16 05:04:23;;;;;;;3.78;2.10;;;10.10;99.90;;;;;;6301017;22;20008;-71
2023/11/16 05:07:10;;;;;;;11.07;3.15;;;10.10;99.90;;;;;;6300608;22;20017;-72
2023/11/16 05:09:59;;;;;;;5.28;2.80;;;10.10;99.90;;;;;;6300834;22;20514;-71
2023/11/16 05:12:48;;;;;;;5.38;2.72;;;10.10;99.90;;;;;;6299493;22;20017;-71
2023/11/16 05:15:34;;;;;;;4.72;3.17;;;10.10;99.90;;;;;;6303387;22;20011;-71
2023/11/16 05:18:22;;;;;;;7.35;3.47;;;10.10;99.90;;;;;;6280802;22;20022;-70
2023/11/16 05:21:08;;;;;;;8.63;2.78;;;10.10;99.90;;;;;;6301404;22;20007;-71
2023/11/16 05:23:54;;;;;;;4.45;2.45;;;10.10;99.90;;;;;;6301272;22;20011;-70
2023/11/16 05:26:41;;;;;;;3.42;2.72;;;10.10;99.90;;;;;;6301674;22;20023;-69
2023/11/16 05:29:27;;;;;;;5.50;2.47;;;10.10;99.90;;;;;;6278846;22;20072;-70
2023/11/16 05:32:13;;;;;;;5.50;2.47;;;10.10;99.90;;;;;;6300873;22;20014;-69
2023/11/16 05:35:00;;;;;;;8.13;3.13;;;10.10;99.90;;;;;;6301443;22;20440;-69
2023/11/16 05:37:45;;;;;;;9.63;4.05;;;10.10;99.90;;;;;;6299867;22;20452;-70
2023/11/16 05:40:32;;;;;;;4.70;2.75;;;10.10;99.90;;;;;;6300878;22;20014;-70
2023/11/16 05:43:18;;;;;;;4.18;2.35;;;10.10;99.90;;;;;;6299581;22;20086;-69
2023/11/16 05:46:04;;;;;;;4.80;2.72;;;10.10;99.90;;;;;;6300597;22;20011;-69
2023/11/16 05:48:50;;;;;;;5.88;3.00;;;10.10;99.90;;;;;;6299744;22;20011;-69
2023/11/16 05:51:36;;;;;;;4.97;2.67;;;10.10;99.90;;;;;;6301035;22;20409;-70
2023/11/16 05:54:23;;;;;;;4.43;2.60;;;10.10;99.90;;;;;;6300660;22;20404;-70
2023/11/16 05:57:09;;;;;;;5.60;3.35;;;10.20;99.90;;;;;;6302173;22;20007;-70
2023/11/16 05:59:56;;;;;;;9.10;2.90;;;10.20;99.90;;;;;;6300061;22;20019;-69
2023/11/16 06:02:42;;;;;;;9.45;3.58;;;10.10;99.90;;;;;;6279803;22;20069;-71
2023/11/16 06:05:28;;;;;;;5.68;3.03;;;10.10;99.90;;;;;;6299318;22;20019;-69
2023/11/16 06:08:16;;;;;;;4.68;2.75;;;10.10;99.90;;;;;;6301807;22;20011;-69
2023/11/16 06:11:02;;;;;;;4.60;2.65;;;10.10;99.90;;;;;;6301686;22;20011;-68
2023/11/16 06:13:50;;;;;;;5.00;3.03;;;10.10;99.90;;;;;;6300541;22;20019;-68
2023/11/16 06:16:45;;;;;;;6.43;2.70;;;10.10;99.90;;;;;;6300537;22;20034;-68
2023/11/16 06:19:31;;;;;;;3.42;2.38;;;10.20;99.90;;;;;;6300876;22;20019;-68
2023/11/16 06:22:17;;;;;;;4.70;2.60;;;10.20;99.90;;;;;;6301326;22;20007;-68
2023/11/16 06:25:04;;;;;;;6.68;2.40;;;10.20;99.90;;;;;;6280113;22;20019;-69
2023/11/16 06:27:51;;;;;;;7.40;2.50;;;10.20;99.90;;;;;;6300504;22;20404;-68
2023/11/16 06:30:39;;;;;;;8.30;3.40;;;10.20;99.90;;;;;;6300521;22;20342;-70
2023/11/16 06:33:24;;;;;;;4.60;2.35;;;10.20;99.90;;;;;;6300782;22;20033;-66
2023/11/16 06:36:10;;;;;;;4.55;2.85;;;10.20;99.90;;;;;;6300573;22;20015;-67
2023/11/16 06:38:56;;;;;;;3.55;2.47;;;10.20;99.90;;;;;;6301243;22;20054;-68
2023/11/16 06:41:42;;;;;;;5.05;2.25;;;10.20;99.90;;;;;;6280259;22;20015;-66
2023/11/16 06:44:29;;;;;;;8.75;2.60;;;10.20;99.90;;;;;;6300203;22;20348;-66
2023/11/16 06:47:15;;;;;;;4.53;2.58;;;10.20;99.90;;;;;;6301254;22;20026;-66
2023/11/16 06:50:05;;;;;;;8.52;3.38;;;10.20;99.90;;;;;;6278243;22;20019;-66
2023/11/16 06:52:52;;;;;;;4.32;2.70;;;10.20;99.90;;;;;;6301707;22;20019;-67
2023/11/16 06:55:44;;;;;;;5.68;2.53;;;10.30;99.90;;;;;;6302619;22;20011;-67
2023/11/16 06:58:35;;;;;;;5.07;2.50;;;10.20;99.90;;;;;;6301644;22;20077;-67
2023/11/16 07:01:21;;;;;;;6.50;3.05;;;10.30;99.90;;;;;;6301982;22;20331;-66
2023/11/16 07:04:07;;;;;;;10.77;3.25;;;10.30;99.90;;;;;;6299673;22;20007;-68
2023/11/16 07:06:53;;;;;;;7.88;3.75;;;10.30;99.90;;;;;;6299568;22;20500;-66
2023/11/16 07:09:46;;;;;;;3.97;2.33;;;10.30;99.90;;;;;;6300238;22;20015;-68
2023/11/16 07:12:32;;;;;;;5.70;2.65;;;10.30;99.90;;;;;;6297894;22;20011;-68
2023/11/16 07:15:21;;;;;;;5.55;2.40;;;10.40;99.90;;;;;;6301339;22;20007;-67
2023/11/16 07:18:07;;;;;;;2.97;2.00;;;10.40;99.90;;;;;;6300687;22;20089;-69
2023/11/16 07:20:54;;;;;;;11.02;2.70;;;10.40;99.90;;;;;;6303157;22;20007;-70
2023/11/16 07:23:41;;;;;;;7.05;2.70;;;10.40;99.90;;;;;;6280065;22;20008;-68
2023/11/16 07:26:27;;;;;;;5.35;2.22;;;10.40;99.90;;;;;;6300816;22;20010;-69
2023/11/16 07:29:12;;;;;;;10.43;2.90;;;10.40;99.90;;;;;;6278775;22;20012;-69
2023/11/16 07:32:00;;;;;;;3.97;2.00;;;10.40;99.90;;;;;;6300146;22;20472;-68
2023/11/16 07:34:46;;;;;;;4.55;2.55;;;10.50;99.90;;;;;;6301607;22;20238;-69
2023/11/16 07:37:32;;;;;;;5.05;2.47;;;10.50;99.90;;;;;;6301361;22;20004;-69
2023/11/16 07:40:18;;;;;;;3.90;2.72;;;10.50;99.90;;;;;;6300581;22;20068;-69
2023/11/16 07:43:05;;;;;;;7.18;2.50;;;10.60;99.90;;;;;;6301689;22;20016;-70
2023/11/16 07:45:52;;;;;;;7.68;2.80;;;10.60;99.90;;;;;;6303941;22;20010;-70
2023/11/16 07:48:39;;;;;;;6.22;2.80;;;10.70;99.90;;;;;;6301138;22;20019;-70
2023/11/16 07:51:25;;;;;;;4.80;2.45;;;10.70;99.90;;;;;;6301032;22;20039;-67
2023/11/16 07:54:11;;;;;;;5.63;2.55;;;10.70;99.90;;;;;;6301253;22;20098;-68
2023/11/16 07:57:02;;;;;;;5.35;2.33;;;10.70;99.90;;;;;;6279870;22;20037;-68
2023/11/16 07:59:48;;;;;;;4.25;2.08;;;10.70;99.90;;;;;;6301952;22;20026;-67
2023/11/16 08:03:41;;;;;;;5.00;2.20;;;10.80;99.90;;;;;;6301384;22;20014;-67
2023/11/16 08:05:43;;;;;;;;;;;10.80;99.90;;;;;;6300568;22;20013;-68
2023/11/16 08:08:31;;;;;;;4.60;2.40;;;10.80;99.90;;;;;;6302006;22;20291;-68
2023/11/16 08:11:18;;;;;;;5.05;2.00;;;10.80;99.90;;;;;;6301773;22;20018;-67
2023/11/16 08:14:06;;;;;;;4.38;2.30;;;10.80;99.90;;;;;;6302059;22;20023;-68
2023/11/16 08:16:58;;;;;;;5.60;2.95;;;10.80;99.90;;;;;;6301942;22;19999;-69
2023/11/16 08:19:43;;;;;;;7.22;2.75;;;10.80;99.90;;;;;;6279092;22;20157;-69
2023/11/16 08:22:29;;;;;;;5.53;2.10;;;10.80;99.90;;;;;;6300817;22;20053;-68
2023/11/16 08:25:15;;;;;;;5.68;2.78;;;10.90;99.90;;;;;;6300209;22;20045;-68
2023/11/16 08:28:01;;;;;;;6.80;2.67;;;10.90;99.90;;;;;;6279412;22;20007;-68
2023/11/16 08:30:48;;;;;;;7.22;3.53;;;10.90;99.90;;;;;;6299211;22;20090;-68
2023/11/16 08:33:35;;;;;;;8.40;3.28;;;10.90;99.90;;;;;;6301458;22;20380;-67
2023/11/16 08:36:21;;;;;;;5.05;2.75;;;10.90;99.90;;;;;;6301740;22;20015;-69
2023/11/16 08:39:07;;;;;;;6.60;2.80;;;10.90;99.90;;;;;;6301146;22;20019;-68
2023/11/16 08:41:54;;;;;;;10.68;3.15;;;11.00;99.90;;;;;;6299807;22;20026;-68
2023/11/16 08:44:44;;;;;;;5.88;2.50;;;11.00;99.90;;;;;;6300000;22;20003;-68
2023/11/16 08:47:30;;;;;;;6.97;2.85;;;11.00;99.90;;;;;;6301347;22;20094;-70
2023/11/16 08:50:18;;;;;;;7.47;2.92;;;11.00;99.90;;;;;;6280343;22;20015;-68
2023/11/16 08:53:07;;;;;;;7.13;3.00;;;11.10;99.90;;;;;;6300529;22;20464;-67
2023/11/16 08:55:54;;;;;;;4.20;2.40;;;11.10;99.90;;;;;;6301830;22;20007;-71
2023/11/16 08:58:47;;;;;;;4.22;2.67;;;11.10;99.90;;;;;;6300069;22;20047;-70
2023/11/16 09:01:37;;;;;;;4.47;2.38;;;11.10;99.90;;;;;;6300192;22;20099;-69
2023/11/16 09:04:23;;;;;;;6.20;2.85;;;11.10;99.90;;;;;;6301553;22;20152;-67
2023/11/16 09:07:09;;;;;;;6.55;3.15;;;11.10;99.90;;;;;;6299126;22;20077;-69
2023/11/16 09:09:59;;;;;;;5.45;2.30;;;11.10;99.90;;;;;;6298818;22;20004;-70
2023/11/16 09:12:47;;;;;;;3.80;2.97;;;11.10;99.90;;;;;;6300220;22;20043;-70
2023/11/16 09:15:33;;;;;;;4.85;2.42;;;11.10;99.90;;;;;;6299883;22;20026;-70
2023/11/16 09:18:22;;;;;;;6.68;2.58;;;11.10;99.90;;;;;;6276107;22;20025;-72
2023/11/16 09:21:09;;;;;;;4.65;2.65;;;11.10;99.90;;;;;;6301597;22;20007;-69
2023/11/16 09:23:55;;;;;;;4.10;2.00;;;11.10;99.90;;;;;;6301075;22;20096;-66
2023/11/16 09:26:41;;;;;;;7.43;2.20;;;11.10;99.90;;;;;;6300872;22;20349;-65
2023/11/16 09:29:28;;;;;;;4.05;2.20;;;11.10;99.90;;;;;;6301217;22;20019;-67
2023/11/16 09:32:14;;;;;;;6.00;2.25;;;11.10;99.90;;;;;;6301663;22;20060;-64
2023/11/16 09:35:00;;;;;;;5.57;2.42;;;11.20;99.90;;;;;;6302476;22;20050;-65
2023/11/16 09:37:46;;;;;;;5.60;2.10;;;11.20;99.90;;;;;;6300237;22;20004;-65
2023/11/16 09:40:33;;;;;;;3.47;2.00;;;11.20;99.90;;;;;;6302116;22;20392;-63
2023/11/16 09:43:24;;;;;;;4.10;2.17;;;11.20;99.90;;;;;;6301221;22;20422;-67
2023/11/16 09:46:16;;;;;;;4.30;2.53;;;11.20;99.90;;;;;;6301107;22;20011;-66
2023/11/16 09:49:06;;;;;;;3.72;1.80;;;11.30;99.90;;;;;;6302136;22;20011;-68
2023/11/16 09:51:52;;;;;;;4.05;2.28;;;11.30;99.90;;;;;;6300401;22;20461;-66
2023/11/16 09:54:40;;;;;;;7.65;2.88;;;11.40;99.90;;;;;;6301834;22;20019;-69
2023/11/16 09:57:33;;;;;;;4.05;1.88;;;11.40;99.90;;;;;;6301393;22;20538;-64
2023/11/16 10:00:20;;;;;;;4.80;2.25;;;11.50;99.90;;;;;;6300855;22;20098;-65
2023/11/16 10:03:06;;;;;;;4.10;1.90;;;11.60;99.90;;;;;;6301311;22;20233;-65
2023/11/16 10:05:56;;;;;;;4.28;2.28;;;11.60;99.90;;;;;;6300208;22;20018;-66
2023/11/16 10:08:43;;;;;;;2.67;1.30;;;11.70;99.90;;;;;;6300720;22;20095;-66
2023/11/16 10:11:31;;;;;;;4.50;1.27;;;11.70;99.90;;;;;;6301704;22;20011;-65
2023/11/16 10:14:18;;;;;;;3.03;1.50;;;11.80;99.90;;;;;;6299894;22;19999;-64
2023/11/16 10:17:04;;;;;;;4.97;2.42;;;11.70;99.90;;;;;;6301012;22;20112;-64
2023/11/16 10:19:51;;;;;;;4.47;1.20;;;11.70;99.90;;;;;;6301531;22;20019;-65
2023/11/16 10:22:38;;;;;;;4.25;1.70;;;11.60;99.90;;;;;;6300014;22;20460;-65
2023/11/16 10:25:24;;;;;;;13.38;1.75;;;11.60;99.90;;;;;;6280226;22;20013;-65
2023/11/16 10:28:19;;;;;;;1.58;0.88;;;11.50;99.90;;;;;;6302228;22;20441;-64
2023/11/16 10:31:06;;;;;;;2.00;1.20;;;11.40;99.90;;;;;;6302248;22;20115;-65
2023/11/16 10:33:52;;;;;;;2.40;0.93;;;11.30;99.90;;;;;;6303695;22;20053;-65
2023/11/16 10:36:38;;;;;;;2.28;1.00;;;11.20;99.90;;;;;;6300794;22;20042;-64
2023/11/16 10:39:27;;;;;;;1.50;1.00;;;11.10;99.90;;;;;;6301442;22;20106;-63
2023/11/16 10:42:18;;;;;;;3.03;1.13;;;11.10;99.90;;;;;;6302232;22;20011;-61
2023/11/16 10:45:05;;;;;;;1.80;0.93;;;11.00;99.70;;;;;;6303322;22;20015;-67
2023/11/16 10:47:51;;;;;;;1.85;1.10;;;11.00;99.60;;;;;;6302150;22;20026;-67
2023/11/16 10:50:37;;;;;;;1.33;0.80;;;10.90;99.40;;;;;;6301783;22;20012;-67
2023/11/16 10:53:24;;;;;;;3.53;1.35;;;10.80;99.40;;;;;;6301314;22;20013;-66
2023/11/16 10:56:12;;;;;;;0.93;0.82;;;10.80;99.40;;;;;;6302948;22;20015;-65
2023/11/16 10:59:05;;;;;;;1.70;0.90;;;10.80;99.40;;;;;;6301706;22;20356;-66
2023/11/16 11:01:52;;;;;;;3.35;1.15;;;10.70;99.30;;;;;;6302293;22;20011;-66
2023/11/16 11:04:38;;;;;;;2.38;1.10;;;10.80;99.40;;;;;;6281715;22;20015;-66
2023/11/16 11:07:26;;;;;;;1.02;0.90;;;10.80;99.40;;;;;;6301048;22;20007;-66
2023/11/16 11:10:14;;;;;;;1.88;0.90;;;10.90;99.50;;;;;;6302724;22;20039;-65
2023/11/16 11:13:03;;;;;;;1.13;0.88;;;10.90;99.50;;;;;;6280901;22;20008;-66
2023/11/16 11:15:49;;;;;;;1.15;0.90;;;11.00;99.50;;;;;;6300766;22;20008;-65
2023/11/16 11:18:51;;;;;;;1.58;0.95;;;11.00;99.40;;;;;;6302581;22;20546;-66
2023/11/16 11:21:47;;;;;;;2.33;1.30;;;11.10;99.10;;;;;;6303554;22;20033;-66
2023/11/16 11:24:45;;;;;;;2.03;1.45;;;11.10;99.00;;;;;;6302592;22;20015;-66
2023/11/16 11:27:31;;;;;;;0.90;0.70;;;11.10;98.80;;;;;;6304603;22;20017;-66
2023/11/16 11:30:20;;;;;;;1.63;0.90;;;11.20;98.80;;;;;;6303616;22;20014;-66
2023/11/16 11:33:14;;;;;;;1.02;0.70;;;11.20;98.60;;;;;;6302823;22;20152;-66
2023/11/16 11:36:00;;;;;;;1.30;1.02;;;11.20;98.40;;;;;;6302468;22;20019;-67
2023/11/16 11:38:54;;;;;;;1.02;0.80;;;11.20;98.30;;;;;;6301260;22;20115;-66
2023/11/16 11:41:47;;;;;;;2.03;1.33;;;11.20;98.20;;;;;;6302396;22;20015;-66
2023/11/16 11:44:33;;;;;;;2.80;0.80;;;11.30;98.10;;;;;;6302531;22;20035;-65
2023/11/16 11:47:21;;;;;;;1.23;0.90;;;11.30;98.00;;;;;;6301484;22;20023;-68
2023/11/16 11:50:07;;;;;;;1.00;0.85;;;11.40;98.00;;;;;;6302870;22;20086;-66
2023/11/16 11:52:54;;;;;;;1.77;0.80;;;11.50;97.90;;;;;;6298428;22;20003;-66
2023/11/16 11:55:40;;;;;;;2.47;0.88;;;11.50;98.00;;;;;;6302568;22;20011;-66
2023/11/16 11:58:26;;;;;;;1.45;0.90;;;11.50;97.70;;;;;;6301207;22;20015;-66
2023/11/16 12:01:12;;;;;;;4.65;0.85;;;11.60;97.50;;;;;;6300552;22;20018;-66
2023/11/16 12:04:03;;;;;;;1.10;0.73;;;11.60;97.40;;;;;;6301835;22;20029;-65
2023/11/16 12:06:49;;;;;;;2.03;0.85;;;11.60;97.40;;;;;;6302937;22;20035;-66
2023/11/16 12:09:45;;;;;;;2.38;1.10;;;11.70;96.90;;;;;;6300869;22;20007;-66
2023/11/16 12:12:38;;;;;;;1.85;1.05;;;11.60;97.00;;;;;;6301549;22;20023;-66
2023/11/16 12:15:24;;;;;;;2.72;1.13;;;11.60;97.00;;;;;;6280282;22;20007;-66
2023/11/16 12:18:10;;;;;;;2.28;1.02;;;11.60;96.70;;;;;;6301604;22;20019;-66
2023/11/16 12:20:56;;;;;;;1.15;0.68;;;11.60;96.10;;;;;;6301676;22;20015;-66
2023/11/16 12:23:50;;;;;;;2.20;0.70;;;11.60;96.20;;;;;;6301783;22;20160;-66
2023/11/16 12:26:36;;;;;;;1.08;0.70;;;11.60;96.10;;;;;;6302309;22;20062;-66
2023/11/16 12:29:26;;;;;;;3.10;1.35;;;11.50;95.80;;;;;;6281301;22;20012;-65
2023/11/16 12:32:12;;;;;;;2.08;1.05;;;11.50;95.80;;;;;;6301799;22;20010;-66
2023/11/16 12:34:58;;;;;;;2.05;1.20;;;11.50;95.90;;;;;;6303201;22;20105;-67
2023/11/16 12:37:44;;;;;;;1.80;0.80;;;11.40;95.90;;;;;;6300800;22;20076;-67
2023/11/16 12:40:30;;;;;;;1.40;0.60;;;11.50;95.90;;;;;;6279787;22;20015;-66
2023/11/16 12:43:17;;;;;;;1.17;0.90;;;11.50;95.90;;;;;;6301145;22;20034;-66
2023/11/16 12:46:03;;;;;;;2.90;1.10;;;11.40;95.80;;;;;;6297392;22;20341;-66
2023/11/16 12:48:51;;;;;;;2.40;0.93;;;11.40;95.70;;;;;;6301781;22;20072;-66
2023/11/16 12:51:37;;;;;;;1.95;1.00;;;11.40;95.70;;;;;;6301419;22;20348;-66
2023/11/16 12:54:22;;;;;;;1.17;0.60;;;11.40;95.70;;;;;;6301222;22;20006;-66
2023/11/16 12:57:09;;;;;;;1.75;1.00;;;11.50;95.70;;;;;;6301102;22;20015;-67
2023/11/16 12:59:55;;;;;;;1.52;0.90;;;11.50;95.70;;;;;;6302902;22;20019;-67
2023/11/16 13:02:41;;;;;;;0.60;0.50;;;11.50;95.60;;;;;;6300256;22;20011;-67
2023/11/16 13:05:28;;;;;;;1.77;0.93;;;11.50;95.40;;;;;;6300766;22;20090;-67
2023/11/16 13:08:22;;;;;;;2.17;1.13;;;11.50;95.30;;;;;;6301939;22;20003;-66
2023/11/16 13:11:08;;;;;;;1.80;0.90;;;11.50;95.10;;;;;;6300346;22;20064;-67
2023/11/16 13:13:54;;;;;;;1.30;0.68;;;11.50;95.00;;;;;;6300246;22;20056;-67
2023/11/16 13:16:41;;;;;;;2.53;0.73;;;11.50;94.90;;;;;;6300100;22;20015;-67
2023/11/16 13:19:27;;;;;;;1.55;0.80;;;11.40;94.90;;;;;;6301275;22;20465;-67
2023/11/16 13:22:13;;;;;;;1.67;1.08;;;11.40;94.80;;;;;;6301105;22;20340;-67
2023/11/16 13:24:59;;;;;;;2.25;0.88;;;11.40;94.80;;;;;;6301857;22;20102;-67
2023/11/16 13:27:45;;;;;;;2.50;0.80;;;11.30;94.90;;;;;;6301803;22;20007;-67
2023/11/16 13:30:33;;;;;;;1.10;1.00;;;11.40;94.90;;;;;;6301401;22;20456;-67
2023/11/16 13:33:19;;;;;;;1.67;0.93;;;11.30;94.70;;;;;;6301272;22;20011;-67
2023/11/16 13:36:06;;;;;;;1.95;0.88;;;11.30;94.60;;;;;;6280222;22;20014;-68
2023/11/16 13:38:53;;;;;;;1.10;0.90;;;11.20;94.60;;;;;;6301447;22;20023;-66
2023/11/16 13:41:39;;;;;;;3.88;1.15;;;11.10;94.60;;;;;;6301544;22;20004;-67
2023/11/16 13:44:25;;;;;;;2.10;1.20;;;11.10;94.60;;;;;;6300911;22;20101;-67
2023/11/16 13:47:11;;;;;;;1.25;0.80;;;11.10;94.60;;;;;;6300515;22;20053;-66
2023/11/16 13:49:58;;;;;;;2.38;1.17;;;11.10;94.70;;;;;;6300624;22;20011;-66
2023/11/16 13:52:44;;;;;;;1.73;1.00;;;11.00;94.70;;;;;;6301553;22;20011;-66
2023/11/16 13:55:31;;;;;;;3.03;1.27;;;11.00;94.80;;;;;;6300573;22;20019;-66
2023/11/16 13:58:17;;;;;;;1.15;1.05;;;11.00;94.90;;;;;;6301109;22;20019;-66
2023/11/16 14:01:04;;;;;;;2.50;1.10;;;11.00;94.90;;;;;;6300383;22;20011;-66
2023/11/16 14:03:50;;;;;;;1.95;1.10;;;10.90;94.90;;;;;;6303373;22;20042;-66
2023/11/16 14:06:37;;;;;;;2.97;1.10;;;10.80;94.80;;;;;;6303761;22;20441;-66
2023/11/16 14:09:24;;;;;;;2.28;1.05;;;10.80;94.90;;;;;;6303702;22;20141;-66
2023/11/16 14:12:10;;;;;;;2.53;1.20;;;10.80;94.90;;;;;;6303454;22;20353;-66
2023/11/16 14:14:56;;;;;;;1.85;1.00;;;10.70;94.90;;;;;;6303408;22;20011;-66
2023/11/16 14:17:42;;;;;;;2.08;0.90;;;10.60;94.90;;;;;;6302320;22;20311;-66
2023/11/16 14:20:28;;;;;;;2.55;1.10;;;10.60;94.90;;;;;;6281394;22;20038;-66
2023/11/16 14:23:15;;;;;;;1.80;1.10;;;10.50;95.00;;;;;;6301481;22;20060;-66
2023/11/16 14:26:05;;;;;;;3.88;1.83;;;10.50;95.00;;;;;;6300977;22;20083;-64
2023/11/16 14:28:51;;;;;;;1.98;1.10;;;10.40;95.40;;;;;;6303638;22;20011;-67
2023/11/16 14:31:37;;;;;;;4.10;1.20;;;10.40;95.20;;;;;;6302676;22;20029;-67